createdAt,value
2019-06-21T00:02:22.376Z,18.20
2019-06-21T00:04:50.843Z,18.10
2019-06-21T00:07:28.491Z,18.10
2019-06-21T00:09:49.554Z,18.10
2019-06-21T00:12:30.380Z,18.00
2019-06-21T00:14:58.845Z,18.10
2019-06-21T00:17:27.289Z,18.00
2019-06-21T00:19:55.751Z,18.00
2019-06-21T00:22:24.194Z,17.90
2019-06-21T00:24:52.650Z,17.90
2019-06-21T00:27:21.174Z,17.80
2019-06-21T00:29:49.717Z,17.80
2019-06-21T00:32:18.173Z,17.70
2019-06-21T00:34:46.678Z,17.70
2019-06-21T00:37:15.132Z,17.60
2019-06-21T00:39:49.463Z,17.60
2019-06-21T00:42:17.942Z,17.60
2019-06-21T00:44:46.377Z,17.50
2019-06-21T00:47:34.169Z,17.50
2019-06-21T00:50:02.998Z,17.40
2019-06-21T00:52:31.612Z,17.40
2019-06-21T00:55:00.151Z,17.50
2019-06-21T00:57:28.641Z,17.40
2019-06-21T00:59:57.111Z,17.40
2019-06-21T01:02:25.543Z,17.40
2019-06-21T01:04:54.023Z,17.40
2019-06-21T01:07:22.606Z,17.50
2019-06-21T01:09:51.048Z,17.50
2019-06-21T01:12:19.508Z,17.60
2019-06-21T01:14:47.949Z,17.70
2019-06-21T01:17:16.425Z,17.70
2019-06-21T01:19:44.882Z,17.70
2019-06-21T01:22:13.359Z,17.80
2019-06-21T01:24:42.603Z,17.70
2019-06-21T01:27:30.398Z,17.70
2019-06-21T01:29:58.857Z,17.70
2019-06-21T01:32:27.291Z,17.70
2019-06-21T01:34:56.116Z,17.70
2019-06-21T01:37:24.579Z,17.70
2019-06-21T01:39:53.893Z,17.80
2019-06-21T01:42:22.341Z,17.80
2019-06-21T01:45:11.752Z,17.80
2019-06-21T01:47:40.197Z,17.70
2019-06-21T01:50:09.865Z,17.60
2019-06-21T01:52:38.373Z,17.70
2019-06-21T01:55:08.857Z,17.70
2019-06-21T01:57:37.521Z,17.80
2019-06-21T02:00:17.231Z,17.60
2019-06-21T02:02:45.728Z,17.60
2019-06-21T02:05:15.907Z,17.50
2019-06-21T02:07:44.606Z,17.40
2019-06-21T02:10:15.380Z,17.30
2019-06-21T02:12:44.663Z,17.20
2019-06-21T02:15:14.991Z,17.20
2019-06-21T02:17:43.593Z,17.10
2019-06-21T02:20:13.854Z,17.20
2019-06-21T02:22:42.372Z,17.20
2019-06-21T02:25:11.560Z,17.20
2019-06-21T02:27:40.366Z,17.10
2019-06-21T02:30:11.902Z,17.00
2019-06-21T02:32:40.475Z,17.00
2019-06-21T02:35:09.284Z,16.90
2019-06-21T02:37:37.784Z,16.90
2019-06-21T02:40:10.436Z,16.80
2019-06-21T02:42:39.054Z,16.80
2019-06-21T02:45:08.595Z,16.80
2019-06-21T02:47:37.107Z,16.70
2019-06-21T02:50:10.919Z,16.80
2019-06-21T02:52:39.519Z,16.80
2019-06-21T02:55:09.713Z,16.80
2019-06-21T02:57:38.220Z,16.90
2019-06-21T03:00:10.423Z,16.80
2019-06-21T03:02:38.935Z,16.70
2019-06-21T03:05:08.057Z,16.70
2019-06-21T03:07:36.574Z,16.70
2019-06-21T03:10:07.589Z,16.70
2019-06-21T03:12:36.072Z,16.70
2019-06-21T03:15:23.865Z,16.60
2019-06-21T03:17:52.384Z,16.60
2019-06-21T03:20:21.067Z,16.50
2019-06-21T03:22:49.527Z,16.50
2019-06-21T03:25:20.615Z,16.50
2019-06-21T03:27:49.199Z,16.50
2019-06-21T03:30:20.190Z,16.40
2019-06-21T03:32:48.825Z,16.40
2019-06-21T03:35:17.694Z,16.40
2019-06-21T03:37:46.350Z,16.40
2019-06-21T03:40:16.454Z,16.40
2019-06-21T03:42:44.912Z,16.40
2019-06-21T03:45:13.880Z,16.40
2019-06-21T03:47:42.405Z,16.40
2019-06-21T03:50:23.174Z,16.40
2019-06-21T03:52:51.636Z,16.30
2019-06-21T03:55:20.084Z,16.30
2019-06-21T03:58:07.877Z,16.30
2019-06-21T04:00:48.829Z,16.20
2019-06-21T04:03:17.356Z,16.20
2019-06-21T04:05:45.795Z,16.20
2019-06-21T04:08:14.248Z,16.20
2019-06-21T04:10:42.752Z,16.20
2019-06-21T04:13:11.199Z,16.10
2019-06-21T04:15:39.662Z,16.10
2019-06-21T04:18:08.096Z,16.10
2019-06-21T04:20:36.603Z,16.20
2019-06-21T04:23:05.122Z,16.20
2019-06-21T04:25:33.570Z,16.20
2019-06-21T04:28:02.037Z,16.20
2019-06-21T04:30:30.476Z,16.20
2019-06-21T04:32:58.915Z,16.20
2019-06-21T04:35:27.373Z,16.20
2019-06-21T04:37:55.828Z,16.20
2019-06-21T04:40:24.352Z,16.20
2019-06-21T04:42:58.727Z,16.30
2019-06-21T04:45:27.253Z,16.20
2019-06-21T04:47:55.703Z,16.20
2019-06-21T04:50:24.212Z,16.30
2019-06-21T04:52:52.664Z,16.30
2019-06-21T04:55:21.585Z,16.30
2019-06-21T04:57:50.032Z,16.30
2019-06-21T05:00:18.652Z,16.30
2019-06-21T05:02:47.172Z,16.30
2019-06-21T05:05:16.124Z,16.20
2019-06-21T05:07:44.636Z,16.20
2019-06-21T05:10:13.324Z,16.20
2019-06-21T05:12:41.943Z,16.20
2019-06-21T05:15:16.181Z,16.20
2019-06-21T05:17:44.802Z,16.20
2019-06-21T05:20:14.069Z,16.20
2019-06-21T05:22:42.653Z,16.10
2019-06-21T05:25:11.532Z,16.00
2019-06-21T05:27:40.017Z,16.10
2019-06-21T05:30:11.616Z,16.10
2019-06-21T05:32:40.062Z,16.10
2019-06-21T05:35:27.852Z,16.10
2019-06-21T05:37:56.380Z,16.10
2019-06-21T05:40:24.964Z,16.20
2019-06-21T05:42:53.413Z,16.10
2019-06-21T05:45:41.275Z,16.10
2019-06-21T05:48:09.716Z,16.10
2019-06-21T05:50:38.174Z,16.30
2019-06-21T05:53:06.623Z,16.40
2019-06-21T05:55:35.180Z,16.40
2019-06-21T05:58:03.729Z,16.40
2019-06-21T06:00:37.774Z,16.40
2019-06-21T06:03:06.260Z,16.40
2019-06-21T06:05:37.454Z,16.40
2019-06-21T06:08:05.993Z,16.40
2019-06-21T06:10:34.437Z,16.50
2019-06-21T06:13:03.087Z,16.50
2019-06-21T06:15:31.701Z,16.50
2019-06-21T06:18:00.278Z,16.50
2019-06-21T06:20:28.887Z,16.50
2019-06-21T06:22:57.324Z,16.50
2019-06-21T06:25:26.122Z,16.60
2019-06-21T06:27:54.787Z,16.60
2019-06-21T06:30:48.489Z,16.60
2019-06-21T06:33:17.392Z,16.70
2019-06-21T06:35:46.529Z,16.60
2019-06-21T06:38:21.072Z,16.60
2019-06-21T06:40:49.738Z,16.60
2019-06-21T06:43:19.056Z,16.70
2019-06-21T06:45:47.762Z,16.80
2019-06-21T06:48:16.194Z,16.90
2019-06-21T06:50:44.727Z,17.10
2019-06-21T06:53:13.166Z,17.10
2019-06-21T06:55:41.603Z,17.10
2019-06-21T06:58:10.057Z,17.20
2019-06-21T07:00:38.644Z,17.30
2019-06-21T07:03:07.307Z,17.40
2019-06-21T07:05:35.834Z,17.50
2019-06-21T07:08:04.416Z,17.60
2019-06-21T07:10:32.876Z,17.60
2019-06-21T07:13:01.341Z,17.70
2019-06-21T07:15:30.908Z,17.80
2019-06-21T07:17:59.376Z,17.80
2019-06-21T07:20:27.856Z,17.90
2019-06-21T07:22:56.300Z,17.90
2019-06-21T07:25:24.753Z,18.10
2019-06-21T07:27:53.208Z,18.10
2019-06-21T07:30:22.092Z,18.20
2019-06-21T07:32:50.620Z,18.20
2019-06-21T07:35:19.128Z,18.20
2019-06-21T07:37:47.600Z,18.20
2019-06-21T07:40:16.133Z,18.30
2019-06-21T07:42:44.568Z,18.40
2019-06-21T07:45:13.462Z,18.50
2019-06-21T07:47:41.902Z,18.50
2019-06-21T07:50:10.807Z,18.60
2019-06-21T07:52:39.311Z,18.60
2019-06-21T07:55:08.192Z,18.60
2019-06-21T07:57:36.734Z,18.70
2019-06-21T08:00:10.290Z,18.70
2019-06-21T08:02:39.128Z,18.60
2019-06-21T08:05:08.903Z,18.60
2019-06-21T08:07:37.349Z,18.70
2019-06-21T08:10:07.812Z,18.80
2019-06-21T08:12:36.381Z,19.00
2019-06-21T08:15:08.657Z,19.10
2019-06-21T08:17:37.179Z,19.30
2019-06-21T08:20:07.060Z,19.50
2019-06-21T08:22:35.603Z,19.50
2019-06-21T08:25:05.844Z,19.70
2019-06-21T08:27:34.300Z,19.90
2019-06-21T08:30:02.900Z,19.90
2019-06-21T08:32:31.446Z,20.10
2019-06-21T08:34:59.956Z,20.20
2019-06-21T08:37:28.463Z,20.20
2019-06-21T08:39:56.981Z,20.30
2019-06-21T08:42:36.108Z,20.30
2019-06-21T08:44:55.734Z,20.40
2019-06-21T08:47:24.441Z,20.50
2019-06-21T08:49:53.008Z,20.70
2019-06-21T08:52:21.460Z,20.70
2019-06-21T08:54:49.897Z,20.90
2019-06-21T08:57:19.976Z,20.90
2019-06-21T08:59:48.658Z,21.00
2019-06-21T09:02:17.114Z,20.80
2019-06-21T09:04:45.646Z,20.80
2019-06-21T09:07:14.160Z,20.90
2019-06-21T09:09:42.628Z,20.60
2019-06-21T09:12:11.549Z,20.50
2019-06-21T09:14:41.290Z,20.20
2019-06-21T09:17:10.394Z,20.10
2019-06-21T09:19:40.115Z,20.30
2019-06-21T09:22:09.950Z,20.40
2019-06-21T09:24:38.867Z,20.00
2019-06-21T09:27:08.748Z,19.80
2019-06-21T09:29:56.922Z,19.70
2019-06-21T09:32:25.462Z,19.60
2019-06-21T09:34:53.927Z,19.80
2019-06-21T09:37:22.449Z,20.10
2019-06-21T09:39:50.996Z,20.30
2019-06-21T09:42:19.448Z,20.60
2019-06-21T09:44:47.956Z,20.80
2019-06-21T09:47:35.850Z,20.80
2019-06-21T09:50:08.598Z,20.70
2019-06-21T09:52:43.129Z,20.60
2019-06-21T09:55:12.527Z,20.60
2019-06-21T09:57:41.056Z,20.80
2019-06-21T10:00:12.756Z,20.80
2019-06-21T10:02:41.674Z,20.70
2019-06-21T10:05:16.712Z,20.70
2019-06-21T10:07:45.221Z,20.80
2019-06-21T10:10:14.971Z,20.90
2019-06-21T10:12:43.640Z,21.00
2019-06-21T10:15:20.641Z,21.30
2019-06-21T10:17:49.505Z,21.50
2019-06-21T10:20:23.691Z,21.30
2019-06-21T10:22:48.647Z,21.50
2019-06-21T10:25:36.420Z,21.70
2019-06-21T10:28:05.133Z,21.90
2019-06-21T10:30:33.777Z,22.00
2019-06-21T10:33:21.649Z,22.20
2019-06-21T10:35:50.348Z,22.30
2019-06-21T10:38:18.874Z,22.40
2019-06-21T10:40:47.328Z,22.50
2019-06-21T10:43:42.806Z,22.50
2019-06-21T10:46:05.380Z,22.60
2019-06-21T10:48:33.899Z,23.00
2019-06-21T10:51:04.203Z,22.90
2019-06-21T10:53:32.666Z,22.90
2019-06-21T10:56:01.198Z,23.20
2019-06-21T10:58:29.684Z,23.20
2019-06-21T11:00:59.656Z,23.30
2019-06-21T11:03:28.422Z,23.30
2019-06-21T11:05:58.021Z,23.20
2019-06-21T11:08:26.688Z,23.20
2019-06-21T11:10:55.200Z,23.40
2019-06-21T11:13:23.642Z,23.60
2019-06-21T11:15:52.117Z,23.50
2019-06-21T11:18:20.573Z,23.10
2019-06-21T11:20:49.109Z,22.90
2019-06-21T11:23:17.627Z,22.90
2019-06-21T11:25:46.100Z,23.20
2019-06-21T11:28:14.748Z,23.40
2019-06-21T11:30:43.238Z,23.60
2019-06-21T11:33:11.798Z,24.00
2019-06-21T11:35:40.495Z,23.90
2019-06-21T11:38:09.848Z,24.20
2019-06-21T11:40:38.606Z,24.10
2019-06-21T11:43:07.176Z,23.80
2019-06-21T11:45:35.802Z,23.60
2019-06-21T11:48:04.932Z,23.40
2019-06-21T11:50:34.779Z,23.20
2019-06-21T11:53:04.855Z,22.90
2019-06-21T11:55:34.605Z,22.50
2019-06-21T11:58:04.571Z,22.30
2019-06-21T12:00:33.312Z,22.20
2019-06-21T12:03:03.260Z,22.20
2019-06-21T12:05:32.276Z,22.60
2019-06-21T12:08:01.427Z,22.40
2019-06-21T12:10:30.971Z,22.60
2019-06-21T12:13:01.787Z,22.50
2019-06-21T12:15:30.762Z,22.60
2019-06-21T12:18:00.970Z,22.70
2019-06-21T12:20:29.592Z,22.70
2019-06-21T12:22:58.543Z,22.90
2019-06-21T12:25:28.702Z,23.60
2019-06-21T12:27:58.580Z,24.10
2019-06-21T12:30:30.664Z,23.80
2019-06-21T12:33:00.050Z,23.60
2019-06-21T12:35:29.482Z,23.60
2019-06-21T12:37:59.481Z,23.60
2019-06-21T12:40:28.231Z,23.40
2019-06-21T12:42:56.932Z,23.40
2019-06-21T12:45:38.681Z,23.60
2019-06-21T12:48:03.700Z,24.20
2019-06-21T12:50:32.164Z,24.30
2019-06-21T12:53:02.047Z,24.30
2019-06-21T12:55:32.480Z,24.10
2019-06-21T12:58:03.177Z,24.10
2019-06-21T13:00:31.760Z,23.80
2019-06-21T13:03:01.871Z,23.90
2019-06-21T13:05:30.957Z,24.40
2019-06-21T13:08:00.035Z,24.70
2019-06-21T13:10:29.757Z,25.40
2019-06-21T13:12:59.633Z,26.10
2019-06-21T13:15:30.073Z,26.10
2019-06-21T13:17:59.860Z,25.30
2019-06-21T13:20:29.053Z,25.00
2019-06-21T13:22:57.965Z,25.30
2019-06-21T13:25:27.776Z,26.00
2019-06-21T13:27:56.587Z,26.20
2019-06-21T13:30:27.234Z,25.60
2019-06-21T13:32:57.674Z,25.30
2019-06-21T13:35:26.267Z,25.10
2019-06-21T13:37:54.720Z,26.00
2019-06-21T13:40:23.705Z,26.90
2019-06-21T13:42:52.525Z,26.60
2019-06-21T13:45:25.534Z,25.80
2019-06-21T13:47:52.880Z,25.10
2019-06-21T13:50:21.877Z,24.70
2019-06-21T13:53:09.795Z,25.30
2019-06-21T13:55:38.316Z,26.20
2019-06-21T13:58:06.764Z,27.20
2019-06-21T14:00:35.293Z,28.20
2019-06-21T14:03:05.472Z,28.70
2019-06-21T14:05:34.305Z,28.50
2019-06-21T14:08:03.904Z,29.00
2019-06-21T14:10:33.308Z,28.60
2019-06-21T14:13:02.697Z,28.10
2019-06-21T14:15:39.467Z,27.60
2019-06-21T14:18:05.365Z,28.00
2019-06-21T14:20:33.080Z,28.60
2019-06-21T14:23:02.868Z,29.40
2019-06-21T14:25:46.683Z,29.60
2019-06-21T14:28:15.223Z,28.90
2019-06-21T14:30:43.749Z,27.90
2019-06-21T14:33:12.394Z,27.40
2019-06-21T14:35:40.948Z,26.90
2019-06-21T14:38:10.861Z,26.30
2019-06-21T14:40:39.492Z,25.80
2019-06-21T14:43:27.293Z,25.50
2019-06-21T14:45:58.947Z,25.20
2019-06-21T14:48:26.901Z,24.80
2019-06-21T14:50:56.138Z,24.50
2019-06-21T14:53:26.069Z,24.20
2019-06-21T14:55:54.503Z,24.00
2019-06-21T14:58:23.132Z,23.70
2019-06-21T15:00:51.745Z,23.40
2019-06-21T15:03:20.641Z,23.40
2019-06-21T15:05:49.779Z,23.30
2019-06-21T15:08:18.458Z,23.30
2019-06-21T15:10:47.691Z,23.20
2019-06-21T15:13:20.797Z,23.10
2019-06-21T15:15:46.419Z,23.20
2019-06-21T15:18:15.151Z,23.30
2019-06-21T15:20:43.627Z,23.40
2019-06-21T15:23:12.143Z,23.60
2019-06-21T15:25:40.839Z,23.70
2019-06-21T15:28:09.670Z,23.60
2019-06-21T15:30:38.629Z,23.50
2019-06-21T15:33:07.578Z,23.30
2019-06-21T15:35:36.138Z,23.40
2019-06-21T15:38:04.738Z,23.50
2019-06-21T15:40:33.665Z,23.60
2019-06-21T15:43:04.005Z,23.60
2019-06-21T15:45:36.927Z,23.50
2019-06-21T15:48:05.733Z,23.20
2019-06-21T15:50:34.649Z,23.00
2019-06-21T15:53:04.011Z,23.00
2019-06-21T15:55:32.988Z,23.10
2019-06-21T15:58:01.716Z,23.10
2019-06-21T16:00:30.813Z,23.30
2019-06-21T16:03:00.210Z,23.60
2019-06-21T16:05:29.628Z,23.60
2019-06-21T16:07:59.076Z,23.60
2019-06-21T16:10:28.565Z,23.60
2019-06-21T16:12:58.585Z,23.60
2019-06-21T16:15:27.662Z,23.40
2019-06-21T16:17:56.689Z,23.40
2019-06-21T16:20:25.241Z,23.40
2019-06-21T16:22:54.840Z,23.30
2019-06-21T16:25:23.565Z,23.10
2019-06-21T16:27:52.122Z,23.00
2019-06-21T16:30:22.468Z,23.00
2019-06-21T16:32:51.481Z,23.00
2019-06-21T16:35:20.143Z,23.00
2019-06-21T16:37:48.762Z,23.00
2019-06-21T16:40:17.738Z,23.00
2019-06-21T16:42:46.277Z,23.00
2019-06-21T16:45:15.076Z,22.90
2019-06-21T16:47:43.885Z,22.90
2019-06-21T16:50:12.817Z,22.90
2019-06-21T16:52:41.327Z,22.90
2019-06-21T16:55:10.290Z,22.90
2019-06-21T16:57:38.864Z,22.80
2019-06-21T17:00:10.269Z,22.90
2019-06-21T17:02:38.782Z,22.90
2019-06-21T17:05:08.045Z,22.80
2019-06-21T17:07:36.529Z,22.80
2019-06-21T17:10:08.628Z,22.90
2019-06-21T17:12:37.329Z,22.90
2019-06-21T17:15:08.087Z,22.80
2019-06-21T17:17:37.913Z,22.80
2019-06-21T17:20:07.284Z,22.80
2019-06-21T17:22:35.797Z,22.70
2019-06-21T17:25:06.876Z,22.60
2019-06-21T17:27:35.518Z,22.50
2019-06-21T17:30:05.461Z,22.50
2019-06-21T17:32:34.811Z,22.30
2019-06-21T17:35:04.401Z,22.30
2019-06-21T17:37:33.036Z,22.30
2019-06-21T17:40:03.304Z,22.40
2019-06-21T17:42:31.812Z,22.40
2019-06-21T17:45:03.376Z,22.40
2019-06-21T17:47:38.332Z,22.40
2019-06-21T17:50:02.347Z,22.40
2019-06-21T17:52:30.848Z,22.40
2019-06-21T17:54:59.384Z,22.50
2019-06-21T17:57:29.943Z,22.50
2019-06-21T18:00:04.810Z,22.50
2019-06-21T18:02:35.335Z,22.40
2019-06-21T18:05:05.837Z,22.20
2019-06-21T18:07:34.265Z,22.20
2019-06-21T18:10:26.472Z,22.10
2019-06-21T18:12:55.061Z,22.20
2019-06-21T18:15:23.702Z,22.30
2019-06-21T18:17:55.124Z,22.20
2019-06-21T18:20:22.547Z,22.10
2019-06-21T18:22:51.051Z,22.10
2019-06-21T18:25:19.496Z,22.00
2019-06-21T18:27:47.944Z,21.80
2019-06-21T18:30:19.535Z,21.70
2019-06-21T18:32:48.051Z,21.70
2019-06-21T18:35:16.577Z,21.60
2019-06-21T18:37:45.011Z,21.50
2019-06-21T18:40:13.535Z,21.40
2019-06-21T18:42:41.986Z,21.30
2019-06-21T18:45:10.517Z,21.20
2019-06-21T18:47:39.024Z,21.10
2019-06-21T18:50:07.740Z,21.10
2019-06-21T18:52:36.363Z,21.00
2019-06-21T18:55:06.283Z,20.90
2019-06-21T18:57:34.734Z,20.90
2019-06-21T19:00:04.203Z,20.90
2019-06-21T19:02:33.605Z,20.80
2019-06-21T19:05:02.140Z,20.70
2019-06-21T19:07:30.611Z,20.70
2019-06-21T19:09:59.210Z,20.60
2019-06-21T19:12:27.843Z,20.60
2019-06-21T19:14:56.441Z,20.60
2019-06-21T19:17:44.244Z,20.60
2019-06-21T19:20:14.483Z,20.50
2019-06-21T19:22:43.199Z,20.40
2019-06-21T19:25:12.136Z,20.30
2019-06-21T19:27:41.225Z,20.30
2019-06-21T19:30:10.823Z,20.20
2019-06-21T19:32:39.328Z,20.20
2019-06-21T19:35:08.926Z,20.10
2019-06-21T19:37:37.355Z,20.00
2019-06-21T19:40:06.464Z,20.00
2019-06-21T19:42:35.017Z,20.00
2019-06-21T19:45:05.528Z,19.90
2019-06-21T19:47:33.963Z,19.90
2019-06-21T19:50:02.588Z,19.80
2019-06-21T19:52:31.028Z,19.80
2019-06-21T19:54:59.649Z,19.70
2019-06-21T19:57:28.109Z,19.70
2019-06-21T19:59:56.704Z,19.60
2019-06-21T20:02:25.143Z,19.60
2019-06-21T20:04:53.626Z,19.60
2019-06-21T20:07:32.477Z,19.50
2019-06-21T20:09:52.344Z,19.50
2019-06-21T20:12:20.807Z,19.50
2019-06-21T20:14:49.244Z,19.40
2019-06-21T20:17:17.728Z,19.40
2019-06-21T20:19:46.249Z,19.30
2019-06-21T20:22:14.748Z,19.30
2019-06-21T20:24:43.305Z,19.30
2019-06-21T20:27:11.884Z,19.20
2019-06-21T20:29:40.324Z,19.20
2019-06-21T20:32:08.798Z,19.20
2019-06-21T20:34:37.241Z,19.20
2019-06-21T20:37:05.696Z,19.10
2019-06-21T20:39:34.188Z,19.10
2019-06-21T20:42:02.660Z,19.10
2019-06-21T20:44:31.125Z,19.00
2019-06-21T20:46:59.589Z,19.00
2019-06-21T20:49:28.099Z,18.90
2019-06-21T20:51:56.552Z,18.90
2019-06-21T20:54:25.011Z,18.90
2019-06-21T20:56:53.531Z,18.80
2019-06-21T20:59:21.988Z,18.80
2019-06-21T21:01:50.459Z,18.80
2019-06-21T21:04:18.903Z,18.80
2019-06-21T21:06:47.395Z,18.80
2019-06-21T21:09:16.927Z,18.80
2019-06-21T21:11:45.422Z,18.70
2019-06-21T21:14:13.907Z,18.70
2019-06-21T21:16:42.428Z,18.80
2019-06-21T21:19:10.973Z,18.70
2019-06-21T21:21:39.487Z,18.80
2019-06-21T21:24:07.996Z,18.70
2019-06-21T21:26:36.535Z,18.60
2019-06-21T21:29:05.043Z,18.70
2019-06-21T21:31:33.639Z,18.60
2019-06-21T21:34:02.161Z,18.60
2019-06-21T21:36:30.672Z,18.60
2019-06-21T21:39:00.033Z,18.60
2019-06-21T21:41:28.469Z,18.50
2019-06-21T21:43:56.940Z,18.50
2019-06-21T21:46:25.379Z,18.50
2019-06-21T21:48:53.841Z,18.50
2019-06-21T21:51:22.289Z,18.40
2019-06-21T21:53:50.768Z,18.30
2019-06-21T21:56:19.191Z,18.40
2019-06-21T21:58:47.636Z,18.30
2019-06-21T22:01:16.157Z,18.30
2019-06-21T22:03:44.828Z,18.30
2019-06-21T22:06:13.371Z,18.20
2019-06-21T22:08:41.807Z,18.20
2019-06-21T22:11:10.267Z,18.20
2019-06-21T22:13:41.101Z,18.10
2019-06-21T22:16:09.587Z,18.10
2019-06-21T22:18:38.072Z,18.10
2019-06-21T22:21:06.651Z,18.00
2019-06-21T22:23:36.124Z,18.00
2019-06-21T22:26:04.692Z,18.00
2019-06-21T22:28:33.132Z,17.90
2019-06-21T22:31:01.588Z,17.90
2019-06-21T22:33:30.037Z,17.80
2019-06-21T22:35:58.643Z,17.80
2019-06-21T22:38:27.182Z,17.70
2019-06-21T22:40:55.718Z,17.70
2019-06-21T22:43:24.174Z,17.70
2019-06-21T22:45:52.880Z,17.70
2019-06-21T22:48:21.361Z,17.60
2019-06-21T22:50:49.873Z,17.60
2019-06-21T22:53:18.312Z,17.60
2019-06-21T22:55:46.794Z,17.60
2019-06-21T22:58:15.271Z,17.60
2019-06-21T23:00:44.098Z,17.60
2019-06-21T23:03:12.581Z,17.50
2019-06-21T23:05:41.107Z,17.50
2019-06-21T23:08:09.588Z,17.50
2019-06-21T23:10:38.037Z,17.50
2019-06-21T23:13:06.475Z,17.50
2019-06-21T23:15:34.915Z,17.50
2019-06-21T23:18:03.381Z,17.50
2019-06-21T23:20:33.529Z,17.40
2019-06-21T23:23:03.661Z,17.40
2019-06-21T23:25:33.823Z,17.40
2019-06-21T23:28:02.537Z,17.30
2019-06-21T23:30:37.996Z,17.30
2019-06-21T23:33:06.428Z,17.30
2019-06-21T23:35:40.702Z,17.30
2019-06-21T23:38:15.113Z,17.30
2019-06-21T23:40:43.563Z,17.30
2019-06-21T23:43:12.023Z,17.30
2019-06-21T23:45:40.465Z,17.20
2019-06-21T23:48:08.993Z,17.20
2019-06-21T23:50:47.772Z,17.20
2019-06-21T23:53:07.715Z,17.10
2019-06-21T23:55:36.196Z,17.10
2019-06-21T23:58:04.708Z,17.00
